ELY5117 LLBG-UGTB
Flight info
| Callsign | ELY5117 |
|---|---|
| Flight time | 2h 50m |
| Altitude | 36000 |
| Route | SUVAS N128 TEZAK L324 SAFTA DCT TOMBI UA16 AYT/N0446F350 UR55 MUT/N0444F340 UA285 SELVI/N0445F350 UA285 SIV UW706 TBN UG261 NOLGA N61 LAGAS |
| Aircraft | B738/M-SDE2E3FGHIJ1LORVWXY/LB1 |
Departure
| Time | 2026-05-01 10:46 |
|---|---|
| Airport | Ben Gurion International Airport (LLBG) |
Arrival
| Time | 2026-05-01 13:36 |
|---|---|
| Airport | Tbilisi International Airport (UGTB) |
| Time | Latitude | Longitude | Altitude | Speed | Heading |
|---|---|---|---|---|---|
| 2026-05-01 10:08 | 32.00080 | 34.87398 | 114 ft | 0 kts | 36° |
| 2026-05-01 10:08 | 32.00092 | 34.87409 | 114 ft | 11 kts | 35° |
| 2026-05-01 10:09 | 32.00080 | 34.87398 | 119 ft | 0 kts | 36° |
| 2026-05-01 10:31 | 32.00067 | 34.87381 | 114 ft | 4 kts | 82° |
| 2026-05-01 10:31 | 32.00039 | 34.87365 | 114 ft | 4 kts | 311° |
| 2026-05-01 10:32 | 32.00010 | 34.87415 | 115 ft | 4 kts | 302° |
| 2026-05-01 10:32 | 31.99998 | 34.87438 | 114 ft | 4 kts | 299° |
| 2026-05-01 10:32 | 31.99996 | 34.87493 | 116 ft | 4 kts | 234° |
| 2026-05-01 10:33 | 32.00016 | 34.87508 | 117 ft | 0 kts | 212° |
| 2026-05-01 10:37 | 32.00015 | 34.87508 | 117 ft | 0 kts | 211° |
| 2026-05-01 10:37 | 31.99980 | 34.87501 | 118 ft | 10 kts | 167° |
| 2026-05-01 10:38 | 31.99972 | 34.87575 | 116 ft | 13 kts | 42° |
| 2026-05-01 10:38 | 32.00006 | 34.87599 | 119 ft | 2 kts | 36° |
| 2026-05-01 10:38 | 32.00014 | 34.87606 | 117 ft | 3 kts | 36° |
| 2026-05-01 10:38 | 32.00042 | 34.87628 | 119 ft | 8 kts | 33° |
| 2026-05-01 10:39 | 32.00091 | 34.87663 | 119 ft | 13 kts | 31° |
| 2026-05-01 10:39 | 32.00211 | 34.87749 | 116 ft | 27 kts | 31° |
| 2026-05-01 10:39 | 32.00351 | 34.87849 | 119 ft | 19 kts | 31° |
| 2026-05-01 10:39 | 32.00460 | 34.87927 | 116 ft | 18 kts | 31° |
| 2026-05-01 10:40 | 32.00504 | 34.87956 | 119 ft | 5 kts | 20° |
| 2026-05-01 10:40 | 32.00540 | 34.87944 | 116 ft | 8 kts | 321° |
| 2026-05-01 10:40 | 32.00615 | 34.87939 | 119 ft | 15 kts | 25° |
| 2026-05-01 10:40 | 32.00719 | 34.88012 | 115 ft | 18 kts | 31° |
| 2026-05-01 10:41 | 32.00823 | 34.88089 | 116 ft | 18 kts | 32° |
| 2026-05-01 10:41 | 32.00924 | 34.88162 | 118 ft | 17 kts | 33° |
| 2026-05-01 10:41 | 32.01116 | 34.88302 | 119 ft | 16 kts | 30° |
| 2026-05-01 10:42 | 32.01210 | 34.88368 | 118 ft | 18 kts | 33° |
| 2026-05-01 10:42 | 32.01335 | 34.88491 | 118 ft | 25 kts | 48° |
| 2026-05-01 10:42 | 32.01436 | 34.88652 | 119 ft | 24 kts | 62° |
| 2026-05-01 10:42 | 32.01493 | 34.88829 | 115 ft | 23 kts | 76° |
| 2026-05-01 10:43 | 32.01521 | 34.89009 | 117 ft | 22 kts | 79° |
| 2026-05-01 10:43 | 32.01538 | 34.89110 | 119 ft | 10 kts | 78° |
| 2026-05-01 10:43 | 32.01577 | 34.89162 | 118 ft | 9 kts | 14° |
| 2026-05-01 10:43 | 32.01641 | 34.89152 | 116 ft | 9 kts | 349° |
| 2026-05-01 10:44 | 32.01703 | 34.89139 | 117 ft | 9 kts | 348° |
| 2026-05-01 10:44 | 32.01741 | 34.89089 | 118 ft | 9 kts | 280° |
| 2026-05-01 10:44 | 32.01741 | 34.89070 | 118 ft | 2 kts | 264° |
| 2026-05-01 10:44 | 32.01740 | 34.89061 | 118 ft | 0 kts | 261° |
| 2026-05-01 10:45 | 32.01740 | 34.89054 | 118 ft | 3 kts | 262° |
| 2026-05-01 10:45 | 32.01705 | 34.88822 | 120 ft | 63 kts | 259° |
| 2026-05-01 10:46 | 32.01588 | 34.88057 | 116 ft | 125 kts | 260° |
| 2026-05-01 10:46 | 32.01424 | 34.86861 | 263 ft | 162 kts | 262° |
| 2026-05-01 10:46 | 32.01229 | 34.85526 | 883 ft | 173 kts | 260° |
| 2026-05-01 10:46 | 32.00973 | 34.84185 | 1777 ft | 164 kts | 258° |
| 2026-05-01 10:47 | 32.00682 | 34.82784 | 2136 ft | 192 kts | 257° |
| 2026-05-01 10:47 | 32.00349 | 34.81201 | 2668 ft | 200 kts | 257° |
| 2026-05-01 10:47 | 32.00015 | 34.79584 | 3165 ft | 213 kts | 256° |
| 2026-05-01 10:47 | 31.99634 | 34.77770 | 3373 ft | 241 kts | 255° |
| 2026-05-01 10:48 | 31.99231 | 34.75773 | 3803 ft | 259 kts | 263° |
| 2026-05-01 10:48 | 31.99471 | 34.73686 | 4626 ft | 259 kts | 290° |
| 2026-05-01 10:48 | 32.00127 | 34.71703 | 5463 ft | 263 kts | 290° |
| 2026-05-01 10:48 | 32.00769 | 34.69666 | 6206 ft | 267 kts | 290° |
| 2026-05-01 10:49 | 32.01411 | 34.67611 | 6952 ft | 268 kts | 289° |
| 2026-05-01 10:49 | 32.02049 | 34.65564 | 7616 ft | 270 kts | 289° |
| 2026-05-01 10:49 | 32.02661 | 34.63468 | 7936 ft | 273 kts | 282° |
| 2026-05-01 10:49 | 32.02855 | 34.61213 | 7994 ft | 274 kts | 272° |
| 2026-05-01 10:50 | 32.02927 | 34.58997 | 7998 ft | 274 kts | 272° |
| 2026-05-01 10:50 | 32.03025 | 34.56765 | 8003 ft | 272 kts | 273° |
| 2026-05-01 10:50 | 32.03136 | 34.54542 | 8008 ft | 272 kts | 273° |
| 2026-05-01 10:50 | 32.03252 | 34.52323 | 8013 ft | 271 kts | 274° |
| 2026-05-01 10:51 | 32.03370 | 34.50093 | 8244 ft | 274 kts | 273° |
| 2026-05-01 10:51 | 32.03488 | 34.47834 | 8954 ft | 277 kts | 273° |
| 2026-05-01 10:51 | 32.03607 | 34.45575 | 9756 ft | 277 kts | 273° |
| 2026-05-01 10:51 | 32.03730 | 34.43289 | 10358 ft | 284 kts | 274° |
| 2026-05-01 10:52 | 32.03868 | 34.40876 | 10528 ft | 306 kts | 274° |
| 2026-05-01 10:52 | 32.04018 | 34.38288 | 10694 ft | 327 kts | 274° |
| 2026-05-01 10:52 | 32.04176 | 34.35541 | 10904 ft | 344 kts | 274° |
| 2026-05-01 10:52 | 32.04340 | 34.32691 | 11401 ft | 351 kts | 274° |
| 2026-05-01 10:53 | 32.04504 | 34.29815 | 12062 ft | 353 kts | 274° |
| 2026-05-01 10:53 | 32.04667 | 34.26925 | 12739 ft | 354 kts | 274° |
| 2026-05-01 10:53 | 32.04868 | 34.24022 | 13373 ft | 357 kts | 279° |
| 2026-05-01 10:53 | 32.05681 | 34.21248 | 13950 ft | 362 kts | 297° |
| 2026-05-01 10:54 | 32.06959 | 34.18697 | 14606 ft | 362 kts | 300° |
| 2026-05-01 10:54 | 32.08282 | 34.16163 | 15205 ft | 364 kts | 300° |
| 2026-05-01 10:54 | 32.09612 | 34.13613 | 15761 ft | 366 kts | 299° |
| 2026-05-01 10:54 | 32.10940 | 34.11041 | 16326 ft | 369 kts | 299° |
| 2026-05-01 10:55 | 32.12269 | 34.08441 | 16900 ft | 371 kts | 298° |
| 2026-05-01 10:55 | 32.13598 | 34.05827 | 17454 ft | 373 kts | 298° |
| 2026-05-01 10:55 | 32.14932 | 34.03194 | 18002 ft | 375 kts | 298° |
| 2026-05-01 10:55 | 32.16275 | 34.00539 | 18504 ft | 378 kts | 298° |
| 2026-05-01 10:56 | 32.17660 | 33.97900 | 18990 ft | 380 kts | 300° |
| 2026-05-01 10:56 | 32.19164 | 33.95327 | 19505 ft | 381 kts | 302° |
| 2026-05-01 10:56 | 32.20717 | 33.92780 | 20016 ft | 382 kts | 303° |
| 2026-05-01 10:56 | 32.22286 | 33.90235 | 20508 ft | 384 kts | 303° |
| 2026-05-01 10:57 | 32.23856 | 33.87681 | 20980 ft | 385 kts | 303° |
| 2026-05-01 10:57 | 32.25428 | 33.85110 | 21431 ft | 387 kts | 302° |
| 2026-05-01 10:57 | 32.27003 | 33.82519 | 21897 ft | 389 kts | 302° |
| 2026-05-01 10:57 | 32.28578 | 33.79914 | 22323 ft | 391 kts | 302° |
| 2026-05-01 10:58 | 32.30157 | 33.77295 | 22752 ft | 392 kts | 302° |
| 2026-05-01 10:58 | 32.31739 | 33.74663 | 23183 ft | 394 kts | 302° |
| 2026-05-01 10:58 | 32.33329 | 33.72015 | 23604 ft | 395 kts | 302° |
| 2026-05-01 10:58 | 32.34921 | 33.69361 | 23933 ft | 397 kts | 302° |
| 2026-05-01 10:59 | 32.36521 | 33.66690 | 24271 ft | 398 kts | 302° |
| 2026-05-01 10:59 | 32.38122 | 33.64016 | 24613 ft | 399 kts | 302° |
| 2026-05-01 10:59 | 32.39727 | 33.61335 | 24943 ft | 400 kts | 302° |
| 2026-05-01 10:59 | 32.41340 | 33.58637 | 25252 ft | 402 kts | 302° |
| 2026-05-01 11:00 | 32.42956 | 33.55932 | 25562 ft | 404 kts | 302° |
| 2026-05-01 11:00 | 32.44582 | 33.53209 | 25884 ft | 405 kts | 302° |
| 2026-05-01 11:00 | 32.46209 | 33.50482 | 26180 ft | 406 kts | 302° |
| 2026-05-01 11:00 | 32.47843 | 33.47742 | 26473 ft | 408 kts | 302° |
| 2026-05-01 11:01 | 32.49482 | 33.44990 | 26761 ft | 410 kts | 302° |
| 2026-05-01 11:01 | 32.51127 | 33.42227 | 27030 ft | 411 kts | 302° |
| 2026-05-01 11:01 | 32.52756 | 33.39489 | 27301 ft | 413 kts | 302° |
| 2026-05-01 11:01 | 32.54412 | 33.36703 | 27581 ft | 414 kts | 302° |
| 2026-05-01 11:02 | 32.56075 | 33.33904 | 27841 ft | 416 kts | 302° |
| 2026-05-01 11:02 | 32.57739 | 33.31100 | 28102 ft | 417 kts | 302° |
| 2026-05-01 11:02 | 32.59411 | 33.28282 | 28351 ft | 419 kts | 302° |
| 2026-05-01 11:02 | 32.61088 | 33.25452 | 28630 ft | 419 kts | 302° |
| 2026-05-01 11:03 | 32.62761 | 33.22629 | 29018 ft | 417 kts | 302° |
| 2026-05-01 11:03 | 32.64424 | 33.19820 | 29450 ft | 415 kts | 302° |
| 2026-05-01 11:03 | 32.66075 | 33.17029 | 29855 ft | 413 kts | 302° |
| 2026-05-01 11:03 | 32.67725 | 33.14238 | 30186 ft | 412 kts | 303° |
| 2026-05-01 11:04 | 32.69367 | 33.11457 | 30474 ft | 411 kts | 303° |
| 2026-05-01 11:04 | 32.71005 | 33.08681 | 30771 ft | 410 kts | 303° |
| 2026-05-01 11:04 | 32.72638 | 33.05910 | 31102 ft | 409 kts | 303° |
| 2026-05-01 11:04 | 32.74260 | 33.03157 | 31505 ft | 404 kts | 303° |
| 2026-05-01 11:05 | 32.75865 | 33.00432 | 31858 ft | 402 kts | 303° |
| 2026-05-01 11:05 | 32.77468 | 32.97707 | 32085 ft | 402 kts | 303° |
| 2026-05-01 11:05 | 32.79073 | 32.94977 | 32296 ft | 403 kts | 303° |
| 2026-05-01 11:05 | 32.80675 | 32.92249 | 32573 ft | 402 kts | 303° |
| 2026-05-01 11:06 | 32.82270 | 32.89533 | 32880 ft | 400 kts | 303° |
| 2026-05-01 11:06 | 32.83859 | 32.86823 | 33148 ft | 399 kts | 303° |
| 2026-05-01 11:06 | 32.85447 | 32.84113 | 33345 ft | 400 kts | 302° |
| 2026-05-01 11:07 | 32.88620 | 32.78695 | 33860 ft | 398 kts | 302° |
| 2026-05-01 11:07 | 32.90199 | 32.75995 | 34088 ft | 397 kts | 302° |
| 2026-05-01 11:07 | 32.91776 | 32.73297 | 34259 ft | 397 kts | 302° |
| 2026-05-01 11:07 | 32.93354 | 32.70595 | 34427 ft | 397 kts | 302° |
| 2026-05-01 11:08 | 32.94929 | 32.67896 | 34609 ft | 397 kts | 302° |
| 2026-05-01 11:08 | 32.96504 | 32.65195 | 34791 ft | 397 kts | 302° |
| 2026-05-01 11:08 | 32.99651 | 32.59793 | 35122 ft | 397 kts | 302° |
| 2026-05-01 11:09 | 33.01225 | 32.57088 | 35257 ft | 398 kts | 302° |
| 2026-05-01 11:09 | 33.02801 | 32.54377 | 35398 ft | 398 kts | 302° |
| 2026-05-01 11:09 | 33.04378 | 32.51664 | 35577 ft | 397 kts | 302° |
| 2026-05-01 11:10 | 33.07520 | 32.46252 | 35881 ft | 397 kts | 302° |
| 2026-05-01 11:10 | 33.09092 | 32.43541 | 35968 ft | 398 kts | 302° |
| 2026-05-01 11:10 | 33.12250 | 32.38087 | 35981 ft | 399 kts | 302° |
| 2026-05-01 11:11 | 33.15395 | 32.32651 | 35990 ft | 397 kts | 302° |
| 2026-05-01 11:11 | 33.18518 | 32.27243 | 36003 ft | 395 kts | 302° |
| 2026-05-01 11:12 | 33.21628 | 32.21849 | 35995 ft | 393 kts | 302° |
| 2026-05-01 11:12 | 33.24725 | 32.16471 | 35991 ft | 392 kts | 302° |
| 2026-05-01 11:13 | 33.27811 | 32.11103 | 35989 ft | 391 kts | 302° |
| 2026-05-01 11:13 | 33.30887 | 32.05744 | 36002 ft | 391 kts | 302° |
| 2026-05-01 11:14 | 33.33944 | 32.00412 | 35994 ft | 392 kts | 302° |
| 2026-05-01 11:14 | 33.37023 | 31.95032 | 35992 ft | 392 kts | 302° |
| 2026-05-01 11:15 | 33.40105 | 31.89640 | 35991 ft | 393 kts | 302° |
| 2026-05-01 11:15 | 33.43193 | 31.84232 | 35996 ft | 394 kts | 301° |
| 2026-05-01 11:16 | 33.46996 | 31.79489 | 36011 ft | 403 kts | 320° |
| 2026-05-01 11:16 | 33.52047 | 31.76428 | 35995 ft | 416 kts | 336° |
| 2026-05-01 11:17 | 33.57625 | 31.74471 | 36007 ft | 418 kts | 337° |
| 2026-05-01 11:17 | 33.63211 | 31.72522 | 35993 ft | 418 kts | 336° |
| 2026-05-01 11:18 | 33.68776 | 31.70526 | 35987 ft | 417 kts | 336° |
| 2026-05-01 11:18 | 33.74318 | 31.68517 | 35987 ft | 416 kts | 336° |
| 2026-05-01 11:19 | 33.79844 | 31.66513 | 35983 ft | 414 kts | 336° |
| 2026-05-01 11:19 | 33.85360 | 31.64504 | 35987 ft | 414 kts | 336° |
| 2026-05-01 11:20 | 33.90859 | 31.62495 | 35979 ft | 412 kts | 336° |
| 2026-05-01 11:20 | 33.96343 | 31.60488 | 35985 ft | 411 kts | 336° |
| 2026-05-01 11:21 | 34.01811 | 31.58485 | 35988 ft | 410 kts | 336° |
| 2026-05-01 11:21 | 34.07267 | 31.56484 | 35990 ft | 410 kts | 336° |
| 2026-05-01 11:22 | 34.12722 | 31.54480 | 35985 ft | 410 kts | 336° |
| 2026-05-01 11:22 | 34.18177 | 31.52473 | 35984 ft | 410 kts | 336° |
| 2026-05-01 11:23 | 34.23628 | 31.50465 | 35979 ft | 410 kts | 336° |
| 2026-05-01 11:23 | 34.29092 | 31.48450 | 35981 ft | 411 kts | 336° |
| 2026-05-01 11:24 | 34.33643 | 31.46769 | 35986 ft | 412 kts | 336° |
| 2026-05-01 11:25 | 34.42721 | 31.43411 | 35983 ft | 413 kts | 336° |
| 2026-05-01 11:25 | 34.50074 | 31.40686 | 35982 ft | 413 kts | 336° |
| 2026-05-01 11:26 | 34.58276 | 31.37640 | 35985 ft | 413 kts | 336° |
| 2026-05-01 11:27 | 34.63769 | 31.35597 | 35975 ft | 413 kts | 335° |
| 2026-05-01 11:27 | 34.69261 | 31.33552 | 35974 ft | 412 kts | 335° |
| 2026-05-01 11:28 | 34.74743 | 31.31507 | 35973 ft | 412 kts | 335° |
| 2026-05-01 11:28 | 34.80215 | 31.29463 | 35999 ft | 411 kts | 335° |
| 2026-05-01 11:29 | 34.88418 | 31.26393 | 35975 ft | 411 kts | 335° |
| 2026-05-01 11:30 | 34.96602 | 31.23324 | 35969 ft | 410 kts | 335° |
| 2026-05-01 11:30 | 35.02047 | 31.21279 | 35971 ft | 409 kts | 335° |
| 2026-05-01 11:31 | 35.07491 | 31.19231 | 35973 ft | 410 kts | 335° |
| 2026-05-01 11:31 | 35.12936 | 31.17179 | 35970 ft | 409 kts | 335° |
| 2026-05-01 11:32 | 35.18380 | 31.15126 | 35965 ft | 409 kts | 335° |
| 2026-05-01 11:32 | 35.23824 | 31.13069 | 35965 ft | 409 kts | 335° |
| 2026-05-01 11:33 | 35.29266 | 31.11010 | 35982 ft | 409 kts | 335° |
| 2026-05-01 11:33 | 35.34713 | 31.08947 | 35967 ft | 410 kts | 335° |
| 2026-05-01 11:34 | 35.40165 | 31.06878 | 35959 ft | 410 kts | 335° |
| 2026-05-01 11:34 | 35.45621 | 31.04806 | 35960 ft | 411 kts | 335° |
| 2026-05-01 11:35 | 35.51081 | 31.02728 | 35954 ft | 411 kts | 335° |
| 2026-05-01 11:35 | 35.56513 | 31.00659 | 35948 ft | 412 kts | 335° |
| 2026-05-01 11:36 | 35.61987 | 30.98570 | 35942 ft | 412 kts | 335° |
| 2026-05-01 11:36 | 35.67469 | 30.96476 | 35959 ft | 413 kts | 335° |
| 2026-05-01 11:37 | 35.72953 | 30.94378 | 35945 ft | 413 kts | 334° |
| 2026-05-01 11:37 | 35.78436 | 30.92277 | 35969 ft | 413 kts | 334° |
| 2026-05-01 11:38 | 35.83920 | 30.90172 | 35951 ft | 413 kts | 334° |
| 2026-05-01 11:38 | 35.89399 | 30.88067 | 35941 ft | 412 kts | 334° |
| 2026-05-01 11:39 | 35.94875 | 30.85959 | 35939 ft | 412 kts | 334° |
| 2026-05-01 11:39 | 36.00337 | 30.83854 | 35938 ft | 411 kts | 334° |
| 2026-05-01 11:40 | 36.05963 | 30.82263 | 35940 ft | 425 kts | 347° |
| 2026-05-01 11:40 | 36.11917 | 30.82075 | 35935 ft | 429 kts | 349° |
| 2026-05-01 11:41 | 36.17877 | 30.81945 | 35935 ft | 428 kts | 349° |
| 2026-05-01 11:41 | 36.23821 | 30.81773 | 35973 ft | 427 kts | 349° |
| 2026-05-01 11:42 | 36.29764 | 30.81581 | 35951 ft | 427 kts | 349° |
| 2026-05-01 11:42 | 36.35716 | 30.81389 | 35941 ft | 428 kts | 349° |
| 2026-05-01 11:43 | 36.41669 | 30.81198 | 35937 ft | 428 kts | 349° |
| 2026-05-01 11:43 | 36.47580 | 30.80993 | 35940 ft | 428 kts | 349° |
| 2026-05-01 11:44 | 36.56515 | 30.80671 | 35939 ft | 428 kts | 349° |
| 2026-05-01 11:44 | 36.62476 | 30.80458 | 35950 ft | 429 kts | 349° |
| 2026-05-01 11:45 | 36.68452 | 30.80245 | 35961 ft | 430 kts | 349° |
| 2026-05-01 11:45 | 36.74434 | 30.80032 | 35957 ft | 430 kts | 349° |
| 2026-05-01 11:46 | 36.80429 | 30.79818 | 35986 ft | 432 kts | 349° |
| 2026-05-01 11:46 | 36.83466 | 30.80084 | 35945 ft | 451 kts | 6° |
| 2026-05-01 11:46 | 36.86435 | 30.81583 | 35972 ft | 473 kts | 24° |
| 2026-05-01 11:47 | 36.89025 | 30.84236 | 35973 ft | 493 kts | 43° |
| 2026-05-01 11:47 | 36.90886 | 30.87881 | 35961 ft | 505 kts | 64° |
| 2026-05-01 11:47 | 36.91738 | 30.92093 | 35967 ft | 511 kts | 85° |
| 2026-05-01 11:47 | 36.91694 | 30.96539 | 35976 ft | 513 kts | 93° |
| 2026-05-01 11:48 | 36.91165 | 31.05452 | 35951 ft | 515 kts | 94° |
| 2026-05-01 11:48 | 36.90672 | 31.14391 | 35946 ft | 517 kts | 93° |
| 2026-05-01 11:49 | 36.90282 | 31.23356 | 35952 ft | 517 kts | 92° |
| 2026-05-01 11:49 | 36.89908 | 31.32331 | 35954 ft | 517 kts | 92° |
| 2026-05-01 11:50 | 36.89518 | 31.41306 | 35948 ft | 516 kts | 91° |
| 2026-05-01 11:50 | 36.89619 | 31.50238 | 35983 ft | 514 kts | 85° |
| 2026-05-01 11:51 | 36.90015 | 31.59146 | 35967 ft | 513 kts | 86° |
| 2026-05-01 11:51 | 36.90318 | 31.68044 | 35974 ft | 512 kts | 87° |
| 2026-05-01 11:52 | 36.90522 | 31.76927 | 35970 ft | 511 kts | 89° |
| 2026-05-01 11:52 | 36.90344 | 31.85799 | 35986 ft | 510 kts | 91° |
| 2026-05-01 11:53 | 36.90128 | 31.94578 | 35975 ft | 508 kts | 91° |
| 2026-05-01 11:53 | 36.89947 | 32.03397 | 35970 ft | 507 kts | 91° |
| 2026-05-01 11:54 | 36.89730 | 32.12182 | 35974 ft | 505 kts | 91° |
| 2026-05-01 11:54 | 36.89507 | 32.20950 | 35961 ft | 505 kts | 91° |
| 2026-05-01 11:55 | 36.89282 | 32.29699 | 35964 ft | 503 kts | 92° |
| 2026-05-01 11:55 | 36.89053 | 32.38447 | 35873 ft | 505 kts | 91° |
| 2026-05-01 11:56 | 36.88935 | 32.42859 | 35366 ft | 509 kts | 91° |
| 2026-05-01 11:56 | 36.88815 | 32.47254 | 35008 ft | 503 kts | 91° |
| 2026-05-01 11:56 | 36.88696 | 32.51566 | 34956 ft | 490 kts | 91° |
| 2026-05-01 11:56 | 36.88578 | 32.55796 | 34930 ft | 484 kts | 91° |
| 2026-05-01 11:57 | 36.88460 | 32.59947 | 34924 ft | 473 kts | 91° |
| 2026-05-01 11:57 | 36.88344 | 32.64012 | 34911 ft | 462 kts | 91° |
| 2026-05-01 11:57 | 36.88115 | 32.71929 | 34932 ft | 454 kts | 91° |
| 2026-05-01 11:58 | 36.87880 | 32.79861 | 34931 ft | 461 kts | 92° |
| 2026-05-01 11:59 | 36.87513 | 32.91916 | 34943 ft | 467 kts | 92° |
| 2026-05-01 11:59 | 36.87261 | 32.99966 | 34913 ft | 458 kts | 92° |
| 2026-05-01 12:00 | 36.86880 | 33.11822 | 34913 ft | 454 kts | 92° |
| 2026-05-01 12:01 | 36.86498 | 33.23661 | 34911 ft | 456 kts | 89° |
| 2026-05-01 12:01 | 36.86946 | 33.27551 | 34907 ft | 452 kts | 68° |
| 2026-05-01 12:01 | 36.88273 | 33.31063 | 34914 ft | 446 kts | 52° |
| 2026-05-01 12:01 | 36.90259 | 33.33968 | 34939 ft | 436 kts | 38° |
| 2026-05-01 12:02 | 36.92485 | 33.36534 | 34917 ft | 436 kts | 37° |
| 2026-05-01 12:02 | 36.97025 | 33.41594 | 34931 ft | 438 kts | 37° |
| 2026-05-01 12:03 | 37.01568 | 33.46710 | 34924 ft | 440 kts | 38° |
| 2026-05-01 12:03 | 37.06071 | 33.51861 | 34923 ft | 442 kts | 38° |
| 2026-05-01 12:04 | 37.10609 | 33.57088 | 34927 ft | 444 kts | 38° |
| 2026-05-01 12:04 | 37.15153 | 33.62335 | 34925 ft | 444 kts | 38° |
| 2026-05-01 12:05 | 37.19698 | 33.67589 | 34908 ft | 444 kts | 38° |
| 2026-05-01 12:05 | 37.26510 | 33.75479 | 34909 ft | 444 kts | 39° |
| 2026-05-01 12:06 | 37.31045 | 33.80743 | 34917 ft | 443 kts | 39° |
| 2026-05-01 12:06 | 37.35561 | 33.85994 | 34911 ft | 442 kts | 39° |
| 2026-05-01 12:07 | 37.40063 | 33.91237 | 34911 ft | 441 kts | 39° |
| 2026-05-01 12:07 | 37.44555 | 33.96476 | 34887 ft | 439 kts | 39° |
| 2026-05-01 12:08 | 37.49024 | 34.01699 | 34893 ft | 438 kts | 39° |
| 2026-05-01 12:08 | 37.53454 | 34.06885 | 34895 ft | 437 kts | 39° |
| 2026-05-01 12:09 | 37.57905 | 34.12104 | 34892 ft | 436 kts | 39° |
| 2026-05-01 12:09 | 37.62343 | 34.17318 | 34890 ft | 436 kts | 39° |
| 2026-05-01 12:10 | 37.68999 | 34.25154 | 34890 ft | 437 kts | 40° |
| 2026-05-01 12:11 | 37.75610 | 34.32959 | 34889 ft | 438 kts | 40° |
| 2026-05-01 12:11 | 37.80064 | 34.38227 | 34886 ft | 439 kts | 40° |
| 2026-05-01 12:12 | 37.84524 | 34.43513 | 34890 ft | 440 kts | 40° |
| 2026-05-01 12:12 | 37.88964 | 34.48783 | 34878 ft | 441 kts | 40° |
| 2026-05-01 12:13 | 37.93439 | 34.54109 | 34891 ft | 442 kts | 40° |
| 2026-05-01 12:13 | 37.97919 | 34.59454 | 34917 ft | 443 kts | 41° |
| 2026-05-01 12:14 | 38.02401 | 34.64813 | 34910 ft | 443 kts | 41° |
| 2026-05-01 12:14 | 38.06881 | 34.70181 | 34910 ft | 443 kts | 41° |
| 2026-05-01 12:15 | 38.10636 | 34.74685 | 34908 ft | 443 kts | 41° |
| 2026-05-01 12:15 | 38.15078 | 34.80024 | 34906 ft | 442 kts | 41° |
| 2026-05-01 12:16 | 38.19543 | 34.85399 | 34898 ft | 442 kts | 41° |
| 2026-05-01 12:16 | 38.24003 | 34.90777 | 34903 ft | 441 kts | 41° |
| 2026-05-01 12:17 | 38.28459 | 34.96150 | 34879 ft | 441 kts | 41° |
| 2026-05-01 12:17 | 38.32937 | 35.01485 | 34868 ft | 440 kts | 41° |
| 2026-05-01 12:18 | 38.37397 | 35.06804 | 34882 ft | 439 kts | 40° |
| 2026-05-01 12:18 | 38.42031 | 35.11860 | 34871 ft | 438 kts | 37° |
| 2026-05-01 12:19 | 38.46724 | 35.16803 | 34873 ft | 437 kts | 38° |
| 2026-05-01 12:19 | 38.51373 | 35.21785 | 34888 ft | 436 kts | 38° |
| 2026-05-01 12:20 | 38.55850 | 35.27036 | 34871 ft | 438 kts | 43° |
| 2026-05-01 12:20 | 38.60119 | 35.32591 | 34879 ft | 438 kts | 44° |
| 2026-05-01 12:21 | 38.64394 | 35.38153 | 34888 ft | 439 kts | 44° |
| 2026-05-01 12:21 | 38.68701 | 35.43689 | 34884 ft | 439 kts | 44° |
| 2026-05-01 12:22 | 38.73023 | 35.49225 | 34893 ft | 440 kts | 43° |
| 2026-05-01 12:22 | 38.77347 | 35.54770 | 34899 ft | 440 kts | 44° |
| 2026-05-01 12:23 | 38.81674 | 35.60333 | 34885 ft | 441 kts | 44° |
| 2026-05-01 12:23 | 38.86007 | 35.65914 | 34883 ft | 441 kts | 44° |
| 2026-05-01 12:24 | 38.90338 | 35.71504 | 34873 ft | 442 kts | 44° |
| 2026-05-01 12:24 | 38.94647 | 35.77070 | 34855 ft | 442 kts | 44° |
| 2026-05-01 12:25 | 39.01059 | 35.85043 | 34863 ft | 441 kts | 43° |
| 2026-05-01 12:26 | 39.05484 | 35.90521 | 34860 ft | 441 kts | 43° |
| 2026-05-01 12:26 | 39.12086 | 35.98754 | 34863 ft | 440 kts | 43° |
| 2026-05-01 12:27 | 39.18600 | 36.07068 | 34846 ft | 440 kts | 45° |
| 2026-05-01 12:28 | 39.24891 | 36.15592 | 34847 ft | 439 kts | 46° |
| 2026-05-01 12:29 | 39.31214 | 36.24132 | 34837 ft | 439 kts | 46° |
| 2026-05-01 12:29 | 39.37548 | 36.32679 | 34832 ft | 439 kts | 46° |
| 2026-05-01 12:30 | 39.43869 | 36.41233 | 34816 ft | 440 kts | 46° |
| 2026-05-01 12:31 | 39.48090 | 36.46959 | 34830 ft | 440 kts | 46° |
| 2026-05-01 12:31 | 39.52313 | 36.52703 | 34816 ft | 440 kts | 46° |
| 2026-05-01 12:32 | 39.56523 | 36.58467 | 34812 ft | 441 kts | 46° |
| 2026-05-01 12:32 | 39.62827 | 36.67124 | 34870 ft | 442 kts | 46° |
| 2026-05-01 12:33 | 39.67041 | 36.72922 | 34902 ft | 442 kts | 46° |
| 2026-05-01 12:33 | 39.71261 | 36.78739 | 34941 ft | 442 kts | 46° |
| 2026-05-01 12:34 | 39.75481 | 36.84566 | 34968 ft | 443 kts | 47° |
| 2026-05-01 12:34 | 39.79539 | 36.90591 | 34960 ft | 443 kts | 58° |
| 2026-05-01 12:35 | 39.82603 | 36.97518 | 34970 ft | 442 kts | 63° |
| 2026-05-01 12:35 | 39.85561 | 37.04530 | 34947 ft | 442 kts | 62° |
| 2026-05-01 12:36 | 39.88549 | 37.11518 | 34918 ft | 442 kts | 62° |
| 2026-05-01 12:36 | 39.91562 | 37.18505 | 34874 ft | 443 kts | 62° |
| 2026-05-01 12:37 | 39.94551 | 37.25434 | 34843 ft | 442 kts | 62° |
| 2026-05-01 12:37 | 39.97565 | 37.32439 | 34817 ft | 442 kts | 62° |
| 2026-05-01 12:38 | 40.00569 | 37.39439 | 34825 ft | 443 kts | 62° |
| 2026-05-01 12:38 | 40.03563 | 37.46432 | 34812 ft | 442 kts | 62° |
| 2026-05-01 12:39 | 40.06539 | 37.53400 | 34820 ft | 443 kts | 62° |
| 2026-05-01 12:39 | 40.09538 | 37.60423 | 34843 ft | 443 kts | 62° |
| 2026-05-01 12:40 | 40.12553 | 37.67439 | 34842 ft | 443 kts | 62° |
| 2026-05-01 12:40 | 40.15566 | 37.74460 | 34837 ft | 443 kts | 62° |
| 2026-05-01 12:41 | 40.18577 | 37.81498 | 34846 ft | 443 kts | 62° |
| 2026-05-01 12:41 | 40.21582 | 37.88545 | 34836 ft | 444 kts | 62° |
| 2026-05-01 12:42 | 40.24560 | 37.95545 | 34838 ft | 443 kts | 62° |
| 2026-05-01 12:42 | 40.27533 | 38.02549 | 34854 ft | 443 kts | 62° |
| 2026-05-01 12:43 | 40.30516 | 38.09592 | 34870 ft | 447 kts | 62° |
| 2026-05-01 12:43 | 40.33525 | 38.16738 | 34878 ft | 456 kts | 63° |
| 2026-05-01 12:44 | 40.36504 | 38.24155 | 34858 ft | 457 kts | 64° |
| 2026-05-01 12:44 | 40.39435 | 38.31357 | 34845 ft | 440 kts | 62° |
| 2026-05-01 12:45 | 40.42434 | 38.38307 | 34876 ft | 439 kts | 62° |
| 2026-05-01 12:45 | 40.45443 | 38.45290 | 34894 ft | 441 kts | 62° |
| 2026-05-01 12:46 | 40.48443 | 38.52322 | 34925 ft | 442 kts | 62° |
| 2026-05-01 12:46 | 40.51425 | 38.59359 | 34920 ft | 444 kts | 63° |
| 2026-05-01 12:47 | 40.54334 | 38.66473 | 34938 ft | 446 kts | 63° |
| 2026-05-01 12:47 | 40.57227 | 38.73612 | 34945 ft | 448 kts | 63° |
| 2026-05-01 12:48 | 40.60146 | 38.80799 | 34953 ft | 449 kts | 63° |
| 2026-05-01 12:48 | 40.63088 | 38.88044 | 34949 ft | 449 kts | 63° |
| 2026-05-01 12:49 | 40.66025 | 38.95306 | 34964 ft | 449 kts | 63° |
| 2026-05-01 12:49 | 40.68941 | 39.02556 | 34964 ft | 448 kts | 63° |
| 2026-05-01 12:50 | 40.71849 | 39.09803 | 34965 ft | 446 kts | 63° |
| 2026-05-01 12:50 | 40.74744 | 39.17036 | 34983 ft | 446 kts | 63° |
| 2026-05-01 12:51 | 40.77632 | 39.24266 | 34942 ft | 445 kts | 63° |
| 2026-05-01 12:52 | 40.81944 | 39.35094 | 34956 ft | 444 kts | 63° |
| 2026-05-01 12:52 | 40.86238 | 39.45917 | 34970 ft | 444 kts | 63° |
| 2026-05-01 12:53 | 40.90528 | 39.56771 | 34986 ft | 445 kts | 63° |
| 2026-05-01 12:54 | 40.93385 | 39.64021 | 34995 ft | 445 kts | 63° |
| 2026-05-01 12:54 | 40.97666 | 39.74913 | 34997 ft | 445 kts | 63° |
| 2026-05-01 12:55 | 41.00030 | 39.82395 | 34992 ft | 443 kts | 79° |
| 2026-05-01 12:55 | 41.00654 | 39.86380 | 35005 ft | 442 kts | 81° |
| 2026-05-01 12:56 | 41.01797 | 39.94399 | 34994 ft | 443 kts | 82° |
| 2026-05-01 12:56 | 41.02946 | 40.02423 | 35001 ft | 444 kts | 81° |
| 2026-05-01 12:57 | 41.04125 | 40.10461 | 35000 ft | 445 kts | 81° |
| 2026-05-01 12:57 | 41.05903 | 40.22481 | 35006 ft | 445 kts | 81° |
| 2026-05-01 12:58 | 41.07088 | 40.30529 | 35008 ft | 445 kts | 81° |
| 2026-05-01 12:59 | 41.08845 | 40.42552 | 35007 ft | 445 kts | 81° |
| 2026-05-01 12:59 | 41.10574 | 40.54479 | 35010 ft | 444 kts | 81° |
| 2026-05-01 13:00 | 41.12307 | 40.66522 | 35014 ft | 443 kts | 81° |
| 2026-05-01 13:01 | 41.14024 | 40.78554 | 35018 ft | 442 kts | 81° |
| 2026-05-01 13:02 | 41.15725 | 40.90562 | 35011 ft | 441 kts | 81° |
| 2026-05-01 13:07 | 41.27608 | 41.77249 | 34978 ft | 441 kts | 82° |
| 2026-05-01 13:08 | 41.28671 | 41.85260 | 34990 ft | 441 kts | 82° |
| 2026-05-01 13:08 | 41.29731 | 41.93288 | 34986 ft | 440 kts | 82° |
| 2026-05-01 13:09 | 41.30764 | 42.01190 | 34591 ft | 439 kts | 82° |
| 2026-05-01 13:09 | 41.31273 | 42.05149 | 33873 ft | 445 kts | 82° |
| 2026-05-01 13:09 | 41.31794 | 42.09231 | 33011 ft | 454 kts | 82° |
| 2026-05-01 13:09 | 41.32318 | 42.13344 | 32451 ft | 454 kts | 82° |
| 2026-05-01 13:10 | 41.32842 | 42.17455 | 32114 ft | 449 kts | 82° |
| 2026-05-01 13:10 | 41.33359 | 42.21510 | 31775 ft | 444 kts | 82° |
| 2026-05-01 13:10 | 41.33871 | 42.25535 | 31420 ft | 440 kts | 82° |
| 2026-05-01 13:10 | 41.34367 | 42.29455 | 31050 ft | 437 kts | 82° |
| 2026-05-01 13:11 | 41.34869 | 42.33431 | 30643 ft | 435 kts | 82° |
| 2026-05-01 13:11 | 41.35365 | 42.37379 | 30333 ft | 429 kts | 82° |
| 2026-05-01 13:11 | 41.35852 | 42.41252 | 30057 ft | 424 kts | 82° |
| 2026-05-01 13:11 | 41.36334 | 42.45108 | 29633 ft | 421 kts | 82° |
| 2026-05-01 13:12 | 41.36813 | 42.48943 | 29142 ft | 419 kts | 82° |
| 2026-05-01 13:12 | 41.37289 | 42.52775 | 28659 ft | 418 kts | 82° |
| 2026-05-01 13:12 | 41.37747 | 42.56472 | 28246 ft | 416 kts | 82° |
| 2026-05-01 13:12 | 41.38209 | 42.60205 | 27854 ft | 412 kts | 82° |
| 2026-05-01 13:13 | 41.38672 | 42.63956 | 27452 ft | 409 kts | 82° |
| 2026-05-01 13:13 | 41.39131 | 42.67688 | 27018 ft | 407 kts | 82° |
| 2026-05-01 13:13 | 41.39589 | 42.71421 | 26612 ft | 405 kts | 83° |
| 2026-05-01 13:13 | 41.40041 | 42.75121 | 26226 ft | 403 kts | 83° |
| 2026-05-01 13:14 | 41.40488 | 42.78781 | 25875 ft | 400 kts | 83° |
| 2026-05-01 13:14 | 41.40926 | 42.82381 | 25496 ft | 397 kts | 83° |
| 2026-05-01 13:14 | 41.41358 | 42.85942 | 25106 ft | 396 kts | 83° |
| 2026-05-01 13:14 | 41.41792 | 42.89526 | 24735 ft | 394 kts | 83° |
| 2026-05-01 13:15 | 41.42224 | 42.93099 | 24382 ft | 392 kts | 83° |
| 2026-05-01 13:15 | 41.42651 | 42.96644 | 24011 ft | 390 kts | 83° |
| 2026-05-01 13:15 | 41.43079 | 43.00209 | 23648 ft | 388 kts | 83° |
| 2026-05-01 13:15 | 41.43505 | 43.03751 | 23222 ft | 386 kts | 83° |
| 2026-05-01 13:16 | 41.43929 | 43.07276 | 22823 ft | 384 kts | 83° |
| 2026-05-01 13:16 | 41.44347 | 43.10772 | 22478 ft | 380 kts | 83° |
| 2026-05-01 13:16 | 41.44760 | 43.14232 | 22115 ft | 377 kts | 83° |
| 2026-05-01 13:17 | 41.45982 | 43.24521 | 20978 ft | 371 kts | 83° |
| 2026-05-01 13:17 | 41.46382 | 43.27905 | 20615 ft | 369 kts | 83° |
| 2026-05-01 13:18 | 41.47173 | 43.34630 | 19869 ft | 366 kts | 83° |
| 2026-05-01 13:18 | 41.47565 | 43.37973 | 19522 ft | 363 kts | 84° |
| 2026-05-01 13:18 | 41.47953 | 43.41292 | 19176 ft | 362 kts | 84° |
| 2026-05-01 13:18 | 41.48340 | 43.44608 | 18851 ft | 360 kts | 84° |
| 2026-05-01 13:19 | 41.48722 | 43.47894 | 18514 ft | 358 kts | 84° |
| 2026-05-01 13:19 | 41.49102 | 43.51170 | 18172 ft | 357 kts | 84° |
| 2026-05-01 13:19 | 41.49857 | 43.57710 | 17328 ft | 357 kts | 84° |
| 2026-05-01 13:20 | 41.50230 | 43.60952 | 17036 ft | 353 kts | 84° |
| 2026-05-01 13:20 | 41.50603 | 43.64199 | 16691 ft | 352 kts | 84° |
| 2026-05-01 13:20 | 41.50972 | 43.67416 | 16346 ft | 350 kts | 84° |
| 2026-05-01 13:21 | 41.51699 | 43.73793 | 15709 ft | 346 kts | 84° |
| 2026-05-01 13:21 | 41.52059 | 43.76955 | 15381 ft | 344 kts | 84° |
| 2026-05-01 13:21 | 41.52417 | 43.80114 | 15037 ft | 343 kts | 84° |
| 2026-05-01 13:21 | 41.52772 | 43.83253 | 14742 ft | 341 kts | 84° |
| 2026-05-01 13:22 | 41.53125 | 43.86382 | 14411 ft | 339 kts | 84° |
| 2026-05-01 13:22 | 41.53475 | 43.89486 | 14060 ft | 337 kts | 84° |
| 2026-05-01 13:22 | 41.53821 | 43.92570 | 13756 ft | 334 kts | 83° |
| 2026-05-01 13:22 | 41.54161 | 43.95612 | 13480 ft | 330 kts | 83° |
| 2026-05-01 13:23 | 41.54499 | 43.98637 | 13116 ft | 329 kts | 84° |
| 2026-05-01 13:23 | 41.54835 | 44.01654 | 12771 ft | 328 kts | 83° |
| 2026-05-01 13:23 | 41.55169 | 44.04663 | 12417 ft | 327 kts | 84° |
| 2026-05-01 13:23 | 41.55501 | 44.07650 | 12206 ft | 322 kts | 84° |
| 2026-05-01 13:24 | 41.55826 | 44.10585 | 12063 ft | 318 kts | 84° |
| 2026-05-01 13:24 | 41.56147 | 44.13490 | 11962 ft | 317 kts | 84° |
| 2026-05-01 13:24 | 41.56469 | 44.16427 | 11856 ft | 322 kts | 84° |
| 2026-05-01 13:25 | 41.57431 | 44.22308 | 11516 ft | 328 kts | 61° |
| 2026-05-01 13:25 | 41.58857 | 44.24645 | 11427 ft | 324 kts | 38° |
| 2026-05-01 13:25 | 41.60678 | 44.26390 | 11336 ft | 322 kts | 33° |
| 2026-05-01 13:25 | 41.62526 | 44.28036 | 11221 ft | 321 kts | 32° |
| 2026-05-01 13:26 | 41.64390 | 44.29682 | 11107 ft | 321 kts | 33° |
| 2026-05-01 13:26 | 41.66245 | 44.31328 | 10983 ft | 320 kts | 33° |
| 2026-05-01 13:26 | 41.68095 | 44.32985 | 10892 ft | 320 kts | 33° |
| 2026-05-01 13:26 | 41.69947 | 44.34653 | 10774 ft | 321 kts | 33° |
| 2026-05-01 13:27 | 41.71802 | 44.36331 | 10682 ft | 322 kts | 33° |
| 2026-05-01 13:27 | 41.73662 | 44.38019 | 10565 ft | 324 kts | 33° |
| 2026-05-01 13:27 | 41.77400 | 44.41418 | 10336 ft | 325 kts | 33° |
| 2026-05-01 13:28 | 41.81128 | 44.44815 | 10088 ft | 319 kts | 33° |
| 2026-05-01 13:28 | 41.82928 | 44.46457 | 9994 ft | 309 kts | 33° |
| 2026-05-01 13:29 | 41.86073 | 44.50269 | 9465 ft | 302 kts | 48° |
| 2026-05-01 13:29 | 41.88859 | 44.54354 | 8981 ft | 296 kts | 48° |
| 2026-05-01 13:30 | 41.91233 | 44.63492 | 8226 ft | 255 kts | 118° |
| 2026-05-01 13:31 | 41.89066 | 44.67031 | 7669 ft | 246 kts | 138° |
| 2026-05-01 13:31 | 41.85441 | 44.71608 | 7162 ft | 230 kts | 137° |
| 2026-05-01 13:32 | 41.83168 | 44.74495 | 6849 ft | 220 kts | 139° |
| 2026-05-01 13:33 | 41.79847 | 44.78713 | 6066 ft | 220 kts | 136° |
| 2026-05-01 13:33 | 41.77642 | 44.81513 | 5394 ft | 218 kts | 136° |
| 2026-05-01 13:34 | 41.75492 | 44.84241 | 4575 ft | 215 kts | 136° |
| 2026-05-01 13:34 | 41.73356 | 44.86949 | 3622 ft | 214 kts | 136° |
| 2026-05-01 13:35 | 41.71188 | 44.89692 | 2686 ft | 207 kts | 137° |
| 2026-05-01 13:35 | 41.70174 | 44.90989 | 2394 ft | 197 kts | 137° |
| 2026-05-01 13:35 | 41.68283 | 44.93428 | 1751 ft | 176 kts | 139° |
| 2026-05-01 13:36 | 41.67417 | 44.94496 | 1530 ft | 160 kts | 140° |
| 2026-05-01 13:36 | 41.66679 | 44.95407 | 1524 ft | 121 kts | 137° |
| 2026-05-01 13:36 | 41.65990 | 44.96272 | 1524 ft | 34 kts | 137° |
| 2026-05-01 13:37 | 41.65850 | 44.96469 | 1521 ft | 26 kts | 114° |
| 2026-05-01 13:37 | 41.65855 | 44.96554 | 1522 ft | 2 kts | 62° |
| 2026-05-01 13:37 | 41.65885 | 44.96593 | 1514 ft | 12 kts | 29° |
| 2026-05-01 13:37 | 41.65981 | 44.96543 | 1525 ft | 18 kts | 315° |
| 2026-05-01 13:38 | 41.66167 | 44.96324 | 1525 ft | 17 kts | 329° |
| 2026-05-01 13:38 | 41.66286 | 44.96303 | 1524 ft | 19 kts | 8° |
| 2026-05-01 13:38 | 41.66421 | 44.96343 | 1523 ft | 21 kts | 14° |
| 2026-05-01 13:39 | 41.66533 | 44.96380 | 1524 ft | 15 kts | 14° |
| 2026-05-01 13:39 | 41.66631 | 44.96413 | 1524 ft | 14 kts | 14° |
| 2026-05-01 13:39 | 41.66723 | 44.96416 | 1526 ft | 14 kts | 329° |
| 2026-05-01 13:39 | 41.66788 | 44.96339 | 1520 ft | 6 kts | 314° |
| 2026-05-01 13:40 | 41.66817 | 44.96296 | 1521 ft | 6 kts | 310° |
| 2026-05-01 13:40 | 41.66835 | 44.96268 | 1522 ft | 0 kts | 310° |
| 2026-05-01 13:40 | 41.66836 | 44.96267 | 1522 ft | 1 kts | 312° |
| 2026-05-01 13:40 | 41.66860 | 44.96210 | 1522 ft | 5 kts | 262° |
| 2026-05-01 13:41 | 41.66842 | 44.96172 | 1525 ft | 5 kts | 224° |
| 2026-05-01 13:41 | 41.66819 | 44.96141 | 1521 ft | 0 kts | 224° |
| 2026-05-01 13:41 | 41.66816 | 44.96136 | 1522 ft | 0 kts | 224° |